createdAt,value
2022-10-01T00:04:30.022Z,11.20
2022-10-01T00:19:20.936Z,11.24
2022-10-01T00:34:12.622Z,11.22
2022-10-01T00:49:06.136Z,11.19
2022-10-01T01:04:00.156Z,11.10
2022-10-01T01:18:52.665Z,11.00
2022-10-01T01:33:46.122Z,10.94
2022-10-01T01:48:37.511Z,10.91
2022-10-01T02:03:29.332Z,11.04
2022-10-01T02:18:41.509Z,11.20
2022-10-01T02:33:38.516Z,11.32
2022-10-01T02:48:29.365Z,11.43
2022-10-01T03:03:20.705Z,11.57
2022-10-01T03:18:12.341Z,11.70
2022-10-01T03:33:03.732Z,11.77
2022-10-01T03:47:54.715Z,11.85
2022-10-01T04:02:45.909Z,11.96
2022-10-01T04:17:37.458Z,12.11
2022-10-01T04:32:28.678Z,12.25
2022-10-01T04:47:20.330Z,12.31
2022-10-01T05:02:11.666Z,12.24
2022-10-01T05:17:02.381Z,12.07
2022-10-01T05:31:53.076Z,11.94
2022-10-01T05:46:44.581Z,11.84
2022-10-01T06:01:35.940Z,11.79
2022-10-01T06:16:27.054Z,11.80
2022-10-01T06:31:18.342Z,11.85
2022-10-01T06:46:09.182Z,11.91
2022-10-01T07:01:00.246Z,11.88
2022-10-01T07:15:51.121Z,11.93
2022-10-01T07:30:42.278Z,11.94
2022-10-01T07:45:33.038Z,12.01
2022-10-01T08:00:35.446Z,12.07
2022-10-01T08:15:21.859Z,12.04
2022-10-01T08:30:13.206Z,11.97
2022-10-01T08:45:04.877Z,11.98
2022-10-01T08:59:55.985Z,11.98
2022-10-01T09:15:02.156Z,12.00
2022-10-01T09:29:59.206Z,11.99
2022-10-01T09:44:50.961Z,12.05
2022-10-01T09:59:57.635Z,12.27
2022-10-01T10:14:54.076Z,12.38
2022-10-01T10:29:45.055Z,12.53
2022-10-01T10:44:37.788Z,12.76
2022-10-01T11:14:23.985Z,12.83
2022-10-01T11:29:23.292Z,12.89
2022-10-01T11:44:19.410Z,13.12
2022-10-01T11:59:13.902Z,13.36
2022-10-01T12:14:10.932Z,13.57
2022-10-01T12:29:11.199Z,13.76
2022-10-01T12:44:42.222Z,13.95
2022-10-01T12:59:41.812Z,14.27
2022-10-01T13:14:36.693Z,14.54
2022-10-01T13:29:30.450Z,14.81
2022-10-01T13:44:24.896Z,15.21
2022-10-01T13:59:19.394Z,15.31
2022-10-01T14:14:45.099Z,15.42
2022-10-01T14:59:49.702Z,15.38
2022-10-01T15:14:40.632Z,15.40
2022-10-01T15:29:31.674Z,15.45
2022-10-01T15:44:38.764Z,15.43
2022-10-01T15:59:34.409Z,15.45
2022-10-01T16:14:28.392Z,15.41
2022-10-01T16:29:22.626Z,15.35
2022-10-01T16:44:13.512Z,15.23
2022-10-01T16:59:04.948Z,15.22
2022-10-01T17:13:56.720Z,15.19
2022-10-01T17:28:47.349Z,15.07
2022-10-01T17:43:38.272Z,14.85
2022-10-01T17:58:29.369Z,14.65
2022-10-01T18:13:21.020Z,14.53
2022-10-01T18:28:12.527Z,14.44
2022-10-01T18:43:08.989Z,14.38
2022-10-01T18:58:18.892Z,14.35
2022-10-01T19:13:17.925Z,14.35
2022-10-01T19:28:29.193Z,14.37
2022-10-01T19:43:47.651Z,14.38
2022-10-01T19:58:43.458Z,14.43
2022-10-01T20:13:43.517Z,14.44
2022-10-01T21:29:05.490Z,14.53
2022-10-01T21:44:13.071Z,14.56
2022-10-01T21:59:29.969Z,14.56
2022-10-01T22:14:27.117Z,14.53
2022-10-01T22:29:18.512Z,14.46
2022-10-01T22:44:12.180Z,14.45
2022-10-01T22:59:09.613Z,14.48
2022-10-01T23:14:26.486Z,14.55
2022-10-01T23:29:35.564Z,14.63
2022-10-01T23:44:44.255Z,14.58
2022-10-01T23:59:57.968Z,14.58
